createdAt,value
2019-01-09T00:00:28.172Z,0.80
2019-01-09T00:02:57.804Z,0.70
2019-01-09T00:05:28.447Z,0.67
2019-01-09T00:07:55.734Z,0.50
2019-01-09T00:10:23.867Z,0.70
2019-01-09T00:12:51.850Z,0.50
2019-01-09T00:15:19.894Z,0.70
2019-01-09T00:17:47.966Z,0.73
2019-01-09T00:20:16.028Z,0.70
2019-01-09T00:22:44.028Z,0.70
2019-01-09T00:25:12.434Z,0.53
2019-01-09T00:27:40.422Z,0.73
2019-01-09T00:30:09.060Z,0.60
2019-01-09T00:32:38.034Z,0.60
2019-01-09T00:35:06.679Z,0.53
2019-01-09T00:37:35.101Z,0.77
2019-01-09T00:40:03.489Z,0.70
2019-01-09T00:42:31.513Z,0.60
2019-01-09T00:45:03.491Z,0.70
2019-01-09T00:47:31.504Z,0.53
2019-01-09T00:49:59.510Z,0.60
2019-01-09T00:52:27.845Z,0.60
2019-01-09T00:54:55.820Z,0.43
2019-01-09T00:57:23.840Z,0.50
2019-01-09T00:59:51.867Z,0.60
2019-01-09T01:03:12.595Z,0.50
2019-01-09T01:06:58.129Z,0.63
2019-01-09T01:10:38.911Z,0.57
2019-01-09T01:13:33.996Z,0.50
2019-01-09T01:16:39.378Z,0.60
2019-01-09T01:20:02.318Z,0.60
2019-01-09T01:23:45.705Z,0.50
2019-01-09T01:27:07.676Z,0.40
2019-01-09T01:30:15.260Z,0.77
2019-01-09T01:33:43.742Z,0.50
2019-01-09T01:37:07.319Z,0.60
2019-01-09T01:40:18.588Z,0.40
2019-01-09T01:44:12.056Z,0.40
2019-01-09T01:47:46.040Z,0.50
2019-01-09T01:51:06.797Z,0.60
2019-01-09T01:54:46.663Z,0.47
2019-01-09T01:58:07.469Z,0.60
2019-01-09T02:01:18.955Z,0.70
2019-01-09T02:05:04.329Z,0.40
2019-01-09T02:08:08.079Z,0.30
2019-01-09T02:11:29.832Z,0.33
2019-01-09T02:14:37.362Z,0.50
2019-01-09T02:18:14.242Z,0.60
2019-01-09T02:21:46.684Z,0.70
2019-01-09T02:24:59.157Z,0.43
2019-01-09T02:28:24.120Z,0.40
2019-01-09T02:31:24.481Z,0.40
2019-01-09T02:33:52.495Z,0.50
2019-01-09T02:36:20.516Z,0.60
2019-01-09T02:38:48.569Z,1.33
2019-01-09T02:41:16.644Z,0.50
2019-01-09T02:43:45.297Z,0.40
2019-01-09T02:46:13.323Z,0.40
2019-01-09T02:48:41.309Z,0.50
2019-01-09T02:51:09.666Z,0.43
2019-01-09T02:53:37.664Z,0.30
2019-01-09T02:56:05.722Z,0.47
2019-01-09T02:58:34.078Z,0.60
2019-01-09T03:01:02.179Z,0.47
2019-01-09T03:03:30.169Z,0.47
2019-01-09T03:05:58.241Z,0.50
2019-01-09T03:08:26.648Z,0.57
2019-01-09T03:10:54.692Z,0.80
2019-01-09T03:13:22.692Z,0.60
2019-01-09T03:15:50.708Z,0.50
2019-01-09T03:18:19.053Z,0.53
2019-01-09T03:20:47.329Z,0.50
2019-01-09T03:23:15.633Z,0.50
2019-01-09T03:25:43.972Z,0.70
2019-01-09T03:28:12.050Z,0.60
2019-01-09T03:30:40.125Z,0.60
2019-01-09T03:33:08.146Z,0.50
2019-01-09T03:35:36.128Z,0.50
2019-01-09T03:38:04.096Z,0.60
2019-01-09T03:40:32.156Z,0.60
2019-01-09T03:43:00.168Z,0.70
2019-01-09T03:45:28.165Z,0.70
2019-01-09T03:47:57.079Z,0.77
2019-01-09T03:50:25.112Z,0.50
2019-01-09T03:52:53.138Z,0.70
2019-01-09T03:55:21.136Z,0.70
2019-01-09T03:57:49.123Z,0.70
2019-01-09T04:00:17.132Z,0.67
2019-01-09T04:02:45.145Z,0.70
2019-01-09T04:05:14.248Z,0.53
2019-01-09T04:07:42.280Z,0.87
2019-01-09T04:10:10.301Z,0.80
2019-01-09T04:12:38.293Z,1.10
2019-01-09T04:15:07.888Z,0.70
2019-01-09T04:17:35.877Z,0.77
2019-01-09T04:20:04.019Z,0.70
2019-01-09T04:22:32.047Z,0.60
2019-01-09T04:25:00.225Z,0.60
2019-01-09T04:27:28.231Z,0.63
2019-01-09T04:29:57.003Z,0.70
2019-01-09T04:32:24.997Z,1.00
2019-01-09T04:34:53.026Z,0.57
2019-01-09T04:37:21.427Z,0.70
2019-01-09T04:39:49.446Z,0.53
2019-01-09T04:42:17.449Z,0.70
2019-01-09T04:44:45.631Z,1.03
2019-01-09T04:47:13.670Z,0.70
2019-01-09T04:49:41.722Z,0.70
2019-01-09T04:52:09.758Z,0.70
2019-01-09T04:54:37.762Z,0.70
2019-01-09T04:57:06.889Z,0.70
2019-01-09T04:59:34.879Z,0.70
2019-01-09T05:02:02.935Z,0.73
2019-01-09T05:04:31.091Z,0.60
2019-01-09T05:07:00.667Z,0.60
2019-01-09T05:09:29.050Z,0.90
2019-01-09T05:11:57.925Z,0.90
2019-01-09T05:14:25.923Z,1.07
2019-01-09T05:16:54.727Z,1.10
2019-01-09T05:19:22.741Z,0.90
2019-01-09T05:21:50.755Z,0.70
2019-01-09T05:24:18.719Z,0.83
2019-01-09T05:26:46.728Z,0.77
2019-01-09T05:29:14.743Z,0.70
2019-01-09T05:31:42.776Z,0.73
2019-01-09T05:34:10.763Z,0.80
2019-01-09T05:36:38.779Z,0.60
2019-01-09T05:39:07.129Z,0.63
2019-01-09T05:41:35.152Z,0.53
2019-01-09T05:44:03.180Z,0.60
2019-01-09T05:46:31.270Z,0.50
2019-01-09T05:49:02.448Z,0.60
2019-01-09T05:51:30.776Z,0.53
2019-01-09T05:54:01.042Z,1.10
2019-01-09T05:56:47.369Z,0.73
2019-01-09T05:59:15.491Z,0.90
2019-01-09T06:01:43.468Z,0.60
2019-01-09T06:04:11.468Z,0.50
2019-01-09T06:06:39.469Z,0.70
2019-01-09T06:09:08.584Z,0.80
2019-01-09T06:11:36.570Z,0.80
2019-01-09T06:14:04.577Z,0.50
2019-01-09T06:16:32.543Z,0.80
2019-01-09T06:19:00.725Z,0.50
2019-01-09T06:21:28.974Z,0.50
2019-01-09T06:23:57.098Z,0.87
2019-01-09T06:26:25.314Z,0.83
2019-01-09T06:28:53.347Z,0.90
2019-01-09T06:31:22.464Z,1.00
2019-01-09T06:33:51.140Z,0.80
2019-01-09T06:36:19.142Z,0.70
2019-01-09T06:38:47.158Z,0.70
2019-01-09T06:41:15.170Z,0.47
2019-01-09T06:43:43.226Z,0.70
2019-01-09T06:46:11.532Z,0.83
2019-01-09T06:48:39.546Z,0.70
2019-01-09T06:51:07.540Z,0.80
2019-01-09T06:53:35.663Z,0.90
2019-01-09T06:56:03.968Z,0.80
2019-01-09T06:58:31.943Z,1.07
2019-01-09T07:00:59.939Z,0.90
2019-01-09T07:03:28.161Z,0.70
2019-01-09T07:05:56.138Z,1.00
2019-01-09T07:08:24.167Z,1.37
2019-01-09T07:10:52.161Z,0.93
2019-01-09T07:13:20.174Z,0.70
2019-01-09T07:15:48.190Z,0.67
2019-01-09T07:18:16.596Z,0.83
2019-01-09T07:20:44.617Z,1.00
2019-01-09T07:23:12.651Z,0.60
2019-01-09T07:25:40.860Z,0.77
2019-01-09T07:28:08.885Z,0.60
2019-01-09T07:30:36.886Z,0.53
2019-01-09T07:33:04.863Z,0.60
2019-01-09T07:35:32.875Z,0.57
2019-01-09T07:38:01.558Z,0.60
2019-01-09T07:40:29.594Z,0.70
2019-01-09T07:42:57.935Z,0.63
2019-01-09T07:45:25.936Z,0.93
2019-01-09T07:47:54.363Z,0.70
2019-01-09T07:50:22.415Z,0.73
2019-01-09T07:52:50.428Z,0.70
2019-01-09T07:55:18.475Z,0.70
2019-01-09T07:57:46.445Z,0.80
2019-01-09T08:00:14.528Z,0.77
2019-01-09T08:02:42.522Z,0.90
2019-01-09T08:05:10.536Z,0.73
2019-01-09T08:07:38.529Z,0.90
2019-01-09T08:10:08.809Z,0.70
2019-01-09T08:12:36.814Z,1.00
2019-01-09T08:15:05.987Z,0.70
2019-01-09T08:17:33.988Z,0.70
2019-01-09T08:20:02.103Z,0.90
2019-01-09T08:22:30.447Z,1.00
2019-01-09T08:24:58.472Z,0.60
2019-01-09T08:27:26.465Z,0.90
2019-01-09T08:29:54.490Z,0.70
2019-01-09T08:32:22.508Z,0.70
2019-01-09T08:34:50.940Z,0.73
2019-01-09T08:37:18.958Z,0.70
2019-01-09T08:39:46.993Z,0.80
2019-01-09T08:42:14.979Z,0.80
2019-01-09T08:44:43.337Z,0.90
2019-01-09T08:47:11.334Z,1.00
2019-01-09T08:49:39.352Z,0.90
2019-01-09T08:52:07.640Z,0.87
2019-01-09T08:54:35.637Z,0.80
2019-01-09T08:57:03.615Z,0.70
2019-01-09T08:59:31.964Z,0.70
2019-01-09T09:02:02.758Z,0.63
2019-01-09T09:04:30.762Z,0.70
2019-01-09T09:06:58.754Z,0.70
2019-01-09T09:09:28.440Z,0.70
2019-01-09T09:11:56.445Z,0.77
2019-01-09T09:14:24.419Z,0.80
2019-01-09T09:16:52.795Z,0.70
2019-01-09T09:19:20.795Z,1.03
2019-01-09T09:21:48.786Z,0.73
2019-01-09T09:24:16.823Z,0.63
2019-01-09T09:26:44.828Z,0.80
2019-01-09T09:29:12.886Z,0.77
2019-01-09T09:31:40.887Z,0.70
2019-01-09T09:34:09.277Z,0.73
2019-01-09T09:36:37.276Z,0.90
2019-01-09T09:39:08.876Z,0.90
2019-01-09T09:41:36.884Z,0.63
2019-01-09T09:44:04.973Z,0.70
2019-01-09T09:46:33.326Z,0.87
2019-01-09T09:49:01.341Z,1.10
2019-01-09T09:51:29.328Z,0.80
2019-01-09T09:53:57.311Z,0.80
2019-01-09T09:56:25.302Z,1.00
2019-01-09T09:58:53.310Z,0.80
2019-01-09T10:01:22.220Z,0.90
2019-01-09T10:03:50.214Z,1.10
2019-01-09T10:06:18.215Z,0.80
2019-01-09T10:08:46.240Z,0.73
2019-01-09T10:11:14.331Z,0.83
2019-01-09T10:13:42.422Z,0.50
2019-01-09T10:16:10.444Z,0.80
2019-01-09T10:18:38.458Z,0.80
2019-01-09T10:21:06.484Z,0.90
2019-01-09T10:23:34.594Z,0.90
2019-01-09T10:26:03.140Z,0.90
2019-01-09T10:28:31.156Z,0.90
2019-01-09T10:30:59.178Z,0.90
2019-01-09T10:33:27.155Z,0.70
2019-01-09T10:35:55.193Z,0.93
2019-01-09T10:38:23.562Z,0.73
2019-01-09T10:40:53.295Z,0.70
2019-01-09T10:43:21.303Z,1.07
2019-01-09T10:45:50.813Z,1.10
2019-01-09T10:48:19.926Z,0.73
2019-01-09T10:50:47.921Z,1.60
2019-01-09T10:53:15.966Z,1.03
2019-01-09T10:55:44.015Z,1.23
2019-01-09T10:58:12.075Z,1.00
2019-01-09T11:00:40.076Z,1.10
2019-01-09T11:03:08.069Z,0.70
2019-01-09T11:05:36.077Z,1.00
2019-01-09T11:08:04.120Z,0.80
2019-01-09T11:10:32.141Z,0.80
2019-01-09T11:13:00.170Z,0.83
2019-01-09T11:15:28.208Z,0.80
2019-01-09T11:17:56.215Z,0.90
2019-01-09T11:20:24.241Z,0.73
2019-01-09T11:22:52.614Z,0.70
2019-01-09T11:25:26.608Z,0.90
2019-01-09T11:27:54.611Z,0.60
2019-01-09T11:30:22.737Z,0.80
2019-01-09T11:32:50.744Z,0.90
2019-01-09T11:35:21.443Z,0.90
2019-01-09T11:37:49.428Z,0.80
2019-01-09T11:40:18.538Z,0.70
2019-01-09T11:42:46.571Z,1.10
2019-01-09T11:45:16.239Z,0.93
2019-01-09T11:47:45.373Z,1.00
2019-01-09T11:50:14.050Z,0.90
2019-01-09T11:52:42.115Z,0.80
2019-01-09T11:55:11.702Z,0.80
2019-01-09T11:57:39.740Z,0.80
2019-01-09T12:00:16.502Z,1.10
2019-01-09T12:02:44.870Z,0.80
2019-01-09T12:05:12.959Z,0.73
2019-01-09T12:07:41.272Z,0.80
2019-01-09T12:10:10.945Z,0.90
2019-01-09T12:12:39.008Z,0.77
2019-01-09T12:15:10.617Z,0.83
2019-01-09T12:17:38.646Z,0.80
2019-01-09T12:20:07.388Z,0.60
2019-01-09T12:22:35.695Z,0.70
2019-01-09T12:25:04.649Z,0.83
2019-01-09T12:27:32.651Z,0.80
2019-01-09T12:30:01.031Z,0.70
2019-01-09T12:32:29.036Z,0.90
2019-01-09T12:34:57.053Z,0.90
2019-01-09T12:37:25.052Z,0.77
2019-01-09T12:39:55.143Z,0.63
2019-01-09T12:42:22.937Z,0.70
2019-01-09T12:44:50.998Z,0.77
2019-01-09T12:47:18.989Z,0.80
2019-01-09T12:49:47.060Z,0.80
2019-01-09T12:52:15.090Z,0.80
2019-01-09T12:54:43.131Z,0.80
2019-01-09T12:57:11.111Z,0.80
2019-01-09T12:59:39.152Z,0.70
2019-01-09T13:02:07.125Z,0.70
2019-01-09T13:04:35.132Z,0.70
2019-01-09T13:07:03.359Z,0.70
2019-01-09T13:09:31.457Z,0.90
2019-01-09T13:11:59.497Z,0.83
2019-01-09T13:14:27.512Z,0.70
2019-01-09T13:16:55.541Z,0.97
2019-01-09T13:19:24.574Z,0.63
2019-01-09T13:21:52.666Z,1.10
2019-01-09T13:24:20.643Z,0.80
2019-01-09T13:26:48.689Z,0.60
2019-01-09T13:29:16.685Z,0.77
2019-01-09T13:31:44.745Z,1.07
2019-01-09T13:34:13.054Z,0.93
2019-01-09T13:36:41.081Z,0.87
2019-01-09T13:39:09.223Z,0.80
2019-01-09T13:41:37.609Z,0.93
2019-01-09T13:44:05.709Z,0.70
2019-01-09T13:46:34.150Z,0.80
2019-01-09T13:49:02.127Z,0.70
2019-01-09T13:51:30.324Z,0.70
2019-01-09T13:53:58.306Z,0.80
2019-01-09T13:56:26.610Z,0.80
2019-01-09T13:58:54.984Z,1.10
2019-01-09T14:01:23.173Z,1.23
2019-01-09T14:03:51.701Z,1.00
2019-01-09T14:06:20.067Z,0.90
2019-01-09T14:08:48.080Z,0.93
2019-01-09T14:11:16.677Z,0.70
2019-01-09T14:13:44.710Z,0.83
2019-01-09T14:16:12.791Z,0.60
2019-01-09T14:18:40.882Z,0.70
2019-01-09T14:21:08.947Z,0.73
2019-01-09T14:23:37.059Z,0.63
2019-01-09T14:26:05.703Z,0.80
2019-01-09T14:28:33.699Z,0.87
2019-01-09T14:31:01.819Z,0.53
2019-01-09T14:33:29.951Z,0.70
2019-01-09T14:35:58.715Z,0.83
2019-01-09T14:38:26.807Z,0.80
2019-01-09T14:40:54.819Z,0.80
2019-01-09T14:43:22.968Z,0.70
2019-01-09T14:45:50.917Z,1.30
2019-01-09T14:48:18.943Z,1.00
2019-01-09T14:50:47.702Z,0.90
2019-01-09T14:53:15.958Z,0.80
2019-01-09T14:55:43.958Z,0.90
2019-01-09T14:58:11.979Z,0.90
2019-01-09T15:00:39.947Z,0.70
2019-01-09T15:03:08.033Z,1.00
2019-01-09T15:05:36.072Z,0.93
2019-01-09T15:08:06.168Z,1.60
2019-01-09T15:10:34.185Z,1.40
2019-01-09T15:13:02.446Z,1.50
2019-01-09T15:15:30.523Z,1.40
2019-01-09T15:17:58.568Z,1.30
2019-01-09T15:20:26.585Z,1.60
2019-01-09T15:22:54.670Z,1.40
2019-01-09T15:25:22.762Z,2.70
2019-01-09T15:27:50.824Z,5.20
2019-01-09T15:30:25.194Z,2.47
2019-01-09T15:32:53.831Z,3.07
2019-01-09T15:35:21.984Z,2.00
2019-01-09T15:37:50.442Z,1.30
2019-01-09T15:40:27.747Z,3.23
2019-01-09T15:42:56.132Z,1.83
2019-01-09T15:45:24.416Z,1.30
2019-01-09T15:47:52.627Z,1.10
2019-01-09T15:50:21.343Z,1.00
2019-01-09T15:52:49.337Z,0.97
2019-01-09T15:55:17.566Z,1.07
2019-01-09T15:57:45.799Z,1.40
2019-01-09T16:00:29.933Z,1.10
2019-01-09T16:02:58.070Z,1.10
2019-01-09T16:05:26.368Z,1.70
2019-01-09T16:07:54.409Z,1.10
2019-01-09T16:10:23.405Z,0.70
2019-01-09T16:12:52.440Z,0.97
2019-01-09T16:15:20.628Z,0.77
2019-01-09T16:17:48.630Z,2.40
2019-01-09T16:20:17.611Z,2.20
2019-01-09T16:22:46.091Z,1.67
2019-01-09T16:25:56.327Z,0.93
2019-01-09T16:28:33.671Z,0.87
2019-01-09T16:31:33.111Z,0.80
2019-01-09T16:34:01.468Z,0.70
2019-01-09T16:36:30.690Z,0.90
2019-01-09T16:38:58.794Z,0.60
2019-01-09T16:41:26.910Z,0.70
2019-01-09T16:43:55.137Z,0.73
2019-01-09T16:46:23.210Z,0.87
2019-01-09T16:48:51.331Z,0.90
2019-01-09T16:51:19.411Z,0.80
2019-01-09T16:53:47.802Z,0.90
2019-01-09T16:56:15.840Z,0.70
2019-01-09T16:58:43.868Z,0.80
2019-01-09T17:01:12.068Z,0.83
2019-01-09T17:03:40.123Z,0.80
2019-01-09T17:06:11.846Z,1.00
2019-01-09T17:08:40.116Z,0.97
2019-01-09T17:11:08.669Z,0.80
2019-01-09T17:13:37.042Z,1.00
2019-01-09T17:16:06.347Z,0.93
2019-01-09T17:18:34.818Z,1.10
2019-01-09T17:21:03.322Z,1.00
2019-01-09T17:23:31.492Z,0.80
2019-01-09T17:25:59.609Z,1.10
2019-01-09T17:28:27.609Z,0.90
2019-01-09T17:30:55.695Z,1.00
2019-01-09T17:33:23.836Z,1.03
2019-01-09T17:35:51.973Z,1.00
2019-01-09T17:38:21.351Z,1.27
2019-01-09T17:40:50.617Z,1.17
2019-01-09T17:43:18.644Z,1.10
2019-01-09T17:45:46.826Z,0.97
2019-01-09T17:48:14.907Z,0.90
2019-01-09T17:50:43.236Z,1.00
2019-01-09T17:53:11.609Z,1.00
2019-01-09T17:55:39.651Z,1.10
2019-01-09T17:58:08.126Z,1.03
2019-01-09T18:00:40.432Z,0.90
2019-01-09T18:03:08.505Z,1.30
2019-01-09T18:05:36.697Z,1.10
2019-01-09T18:08:10.510Z,1.40
2019-01-09T18:10:35.121Z,1.43
2019-01-09T18:13:03.606Z,0.90
2019-01-09T18:15:31.732Z,0.90
2019-01-09T18:17:59.820Z,0.90
2019-01-09T18:20:27.962Z,0.70
2019-01-09T18:22:55.966Z,0.70
2019-01-09T18:25:26.213Z,0.80
2019-01-09T18:27:54.278Z,0.80
2019-01-09T18:30:39.872Z,1.20
2019-01-09T18:33:25.944Z,1.10
2019-01-09T18:36:20.135Z,1.60
2019-01-09T18:39:51.259Z,1.13
2019-01-09T18:43:33.597Z,1.53
2019-01-09T18:47:02.634Z,1.27
2019-01-09T18:50:29.177Z,1.00
2019-01-09T18:53:27.789Z,1.20
2019-01-09T18:55:56.262Z,1.07
2019-01-09T18:58:24.290Z,1.13
2019-01-09T19:00:53.343Z,1.07
2019-01-09T19:03:21.355Z,1.00
2019-01-09T19:05:49.558Z,1.00
2019-01-09T19:08:17.752Z,1.13
2019-01-09T19:10:46.264Z,1.07
2019-01-09T19:13:14.334Z,1.10
2019-01-09T19:15:43.854Z,1.10
2019-01-09T19:18:11.909Z,1.10
2019-01-09T19:20:39.981Z,1.30
2019-01-09T19:23:08.279Z,1.10
2019-01-09T19:25:37.478Z,1.00
2019-01-09T19:28:06.413Z,1.00
2019-01-09T19:30:34.670Z,1.60
2019-01-09T19:33:02.923Z,8.40
2019-01-09T19:35:30.988Z,5.30
2019-01-09T19:38:00.438Z,2.90
2019-01-09T19:40:28.546Z,2.30
2019-01-09T19:42:56.807Z,1.77
2019-01-09T19:45:25.062Z,2.00
2019-01-09T19:47:53.238Z,1.90
2019-01-09T19:50:23.094Z,2.20
2019-01-09T19:52:52.214Z,1.67
2019-01-09T19:55:20.727Z,1.77
2019-01-09T19:57:48.819Z,1.53
2019-01-09T20:00:20.533Z,1.53
2019-01-09T20:02:50.118Z,2.67
2019-01-09T20:05:18.939Z,3.90
2019-01-09T20:07:48.725Z,3.50
2019-01-09T20:10:20.026Z,2.30
2019-01-09T20:12:48.159Z,1.97
2019-01-09T20:15:17.830Z,1.60
2019-01-09T20:17:46.247Z,1.67
2019-01-09T20:20:16.101Z,1.53
2019-01-09T20:22:44.974Z,1.60
2019-01-09T20:25:14.248Z,1.20
2019-01-09T20:27:43.714Z,1.57
2019-01-09T20:30:31.819Z,1.30
2019-01-09T20:33:00.266Z,1.20
2019-01-09T20:35:28.470Z,1.23
2019-01-09T20:37:57.899Z,1.53
2019-01-09T20:40:26.649Z,1.50
2019-01-09T20:42:54.916Z,1.40
2019-01-09T20:45:23.339Z,1.40
2019-01-09T20:47:51.509Z,1.50
2019-01-09T20:50:26.931Z,1.70
2019-01-09T20:52:55.132Z,1.60
2019-01-09T20:55:23.994Z,1.33
2019-01-09T20:57:52.711Z,1.50
2019-01-09T21:00:27.034Z,1.53
2019-01-09T21:02:58.997Z,1.40
2019-01-09T21:05:31.654Z,1.77
2019-01-09T21:08:01.239Z,1.40
2019-01-09T21:10:29.650Z,1.60
2019-01-09T21:12:57.882Z,1.50
2019-01-09T21:15:26.032Z,1.40
2019-01-09T21:17:54.189Z,1.70
2019-01-09T21:20:22.249Z,1.43
2019-01-09T21:22:50.567Z,1.60
2019-01-09T21:25:19.063Z,1.47
2019-01-09T21:27:48.322Z,1.50
2019-01-09T21:30:19.183Z,1.80
2019-01-09T21:32:47.216Z,1.40
2019-01-09T21:35:15.496Z,1.50
2019-01-09T21:37:45.129Z,1.43
2019-01-09T21:40:20.612Z,1.63
2019-01-09T21:42:48.934Z,1.70
2019-01-09T21:45:17.018Z,1.97
2019-01-09T21:47:46.518Z,1.63
2019-01-09T21:50:16.036Z,2.00
2019-01-09T21:52:45.379Z,1.73
2019-01-09T21:55:15.782Z,1.77
2019-01-09T21:57:43.850Z,1.77
2019-01-09T22:00:18.960Z,1.80
2019-01-09T22:02:47.028Z,1.97
2019-01-09T22:05:15.233Z,1.57
2019-01-09T22:07:43.780Z,2.10
2019-01-09T22:10:33.944Z,3.40
2019-01-09T22:13:02.368Z,2.60
2019-01-09T22:15:30.518Z,2.40
2019-01-09T22:17:58.539Z,2.27
2019-01-09T22:20:26.554Z,2.03
2019-01-09T22:22:54.546Z,2.03
2019-01-09T22:25:22.659Z,2.43
2019-01-09T22:27:50.717Z,2.33
2019-01-09T22:30:24.363Z,1.93
2019-01-09T22:32:52.826Z,2.00
2019-01-09T22:35:20.903Z,1.80
2019-01-09T22:37:48.908Z,1.70
2019-01-09T22:40:18.125Z,1.87
2019-01-09T22:42:46.230Z,1.80
2019-01-09T22:45:14.868Z,1.67
2019-01-09T22:47:43.063Z,1.77
2019-01-09T22:50:14.708Z,1.70
2019-01-09T22:52:42.978Z,1.97
2019-01-09T22:55:11.037Z,1.57
2019-01-09T22:57:39.103Z,1.87
2019-01-09T23:00:46.848Z,1.60
2019-01-09T23:03:15.380Z,1.70
2019-01-09T23:05:43.789Z,1.53
2019-01-09T23:08:12.559Z,1.83
2019-01-09T23:10:40.637Z,1.50
2019-01-09T23:13:08.635Z,1.50
2019-01-09T23:15:37.344Z,1.47
2019-01-09T23:18:06.107Z,1.50
2019-01-09T23:20:34.130Z,1.47
2019-01-09T23:23:02.242Z,1.30
2019-01-09T23:25:30.248Z,1.50
2019-01-09T23:27:58.280Z,1.53
2019-01-09T23:30:26.265Z,1.50
2019-01-09T23:32:54.282Z,1.30
2019-01-09T23:35:22.399Z,1.27
2019-01-09T23:37:50.420Z,1.23
2019-01-09T23:40:18.971Z,1.30
2019-01-09T23:42:47.094Z,1.43
2019-01-09T23:45:15.116Z,1.13
2019-01-09T23:47:43.258Z,1.17
2019-01-09T23:50:11.515Z,1.30
2019-01-09T23:52:40.072Z,1.20
2019-01-09T23:55:11.312Z,1.30
2019-01-09T23:57:39.432Z,1.20
